Time;durP1;ratioP1;P1;durP2;ratioP2;P2;SDS_P1;SDS_P2;PMS_P1;PMS_P2;Temp;Humidity;BMP_temperature;BMP_pressure;BME280_temperature;BME280_humidity;BME280_pressure;Samples;Min_cycle;Max_cycle;Signal;HPM_P1;HPM_P2
2021/05/20 00:01:20;;;;;;;;;;;;;;;11.41;64.69;100182.81;2242240;39;19962;-80
2021/05/20 00:02:52;;;;;;;;;;;;;;;11.41;64.65;100184.66;2233437;39;19979;-79
2021/05/20 00:04:23;;;;;;;;;;;;;;;11.38;64.74;100183.97;2241065;39;19947;-79
2021/05/20 00:05:54;;;;;;;;;;;;;;;11.37;64.82;100187.63;2243841;39;19962;-79
2021/05/20 00:07:24;;;;;;;;;;;;;;;11.36;64.82;100188.59;2244346;39;19958;-79
2021/05/20 00:08:55;;;;;;;;;;;;;;;11.34;64.93;100190.56;2209920;39;20626;-79
2021/05/20 00:10:27;;;;;;;;;;;;;;;11.31;64.95;100185.53;2243147;39;19947;-78
2021/05/20 00:11:59;;;;;;;;;;;;;;;11.31;64.96;100188.22;2241503;39;19972;-79
2021/05/20 00:13:31;;;;;;;;;;;;;;;11.31;65.02;100190.91;2243504;39;19943;-78
2021/05/20 00:15:03;;;;;;;;;;;;;;;11.28;65.13;100188.50;2241052;39;20074;-79
2021/05/20 00:16:34;;;;;;;;;;;;;;;11.23;65.39;100191.59;2238371;40;19947;-80
2021/05/20 00:18:05;;;;;;;;;;;;;;;11.24;65.40;100187.94;2240547;39;19948;-80
2021/05/20 00:19:36;;;;;;;;;;;;;;;11.24;65.44;100198.66;2243466;39;19943;-79
2021/05/20 00:21:07;;;;;;;;;;;;;;;11.24;65.51;100195.16;2241975;39;19939;-80
2021/05/20 00:22:38;;;;;;;;;;;;;;;11.24;65.59;100195.16;2243072;39;19947;-80
2021/05/20 00:24:09;;;;;;;;;;;;;;;11.21;65.69;100184.72;2242145;39;19944;-80
2021/05/20 00:25:41;;;;;;;;;;;;;;;11.21;65.79;100187.41;2244803;39;19956;-80
2021/05/20 00:27:12;;;;;;;;;;;;;;;11.21;65.76;100195.44;2243663;39;19939;-79
2021/05/20 00:28:44;;;;;;;;;;;;;;;11.20;65.89;100197.25;2243471;39;19955;-79
2021/05/20 00:30:16;;;;;;;;;;;;;;;11.16;65.96;100192.31;2242795;39;20246;-79
2021/05/20 00:31:47;;;;;;;;;;;;;;;11.13;66.03;100190.78;2244967;39;20294;-81
2021/05/20 00:33:17;;;;;;;;;;;;;;;11.10;66.15;100196.41;2243425;39;19940;-80
2021/05/20 00:34:48;;;;;;;;;;;;;;;11.10;66.21;100196.41;2239767;39;19943;-80
2021/05/20 00:36:20;;;;;;;;;;;;;;;11.08;66.29;100201.94;2239984;39;19935;-80
2021/05/20 00:37:50;;;;;;;;;;;;;;;11.02;66.35;100199.84;2244620;39;19942;-81
2021/05/20 00:39:22;;;;;;;;;;;;;;;10.96;66.58;100205.75;2243004;39;19943;-80
2021/05/20 00:40:57;;;;;;;;;;;;;;;10.90;66.61;100204.50;2239373;39;19944;-80
2021/05/20 00:42:29;;;;;;;;;;;;;;;10.86;66.95;100205.78;2236589;39;19961;-80
2021/05/20 00:43:59;;;;;;;;;;;;;;;10.82;67.00;100200.84;2237293;40;20187;-79
2021/05/20 00:45:30;;;;;;;;;;;;;;;10.80;67.11;100205.50;2241816;39;19939;-80
2021/05/20 00:47:03;;;;;;;;;;;;;;;10.79;67.20;100207.34;2243213;39;20451;-80
2021/05/20 00:48:34;;;;;;;;;;;;;;;10.81;67.21;100205.38;2241903;39;19936;-80
2021/05/20 00:50:07;;;;;;;;;;;;;;;10.79;67.24;100204.66;2243735;39;19932;-79
2021/05/20 00:51:41;;;;;;;;;;;;;;;10.75;67.32;100209.44;2242074;39;19987;-79
2021/05/20 00:53:13;;;;;;;;;;;;;;;10.71;67.61;100210.72;2239327;39;20195;-80
2021/05/20 00:54:44;;;;;;;;;;;;;;;10.66;67.64;100209.44;2240775;39;19952;-79
2021/05/20 00:56:18;;;;;;;;;;;;;;;10.61;67.78;100213.41;2244216;39;19948;-81
2021/05/20 00:57:51;;;;;;;;;;;;;;;10.60;67.90;100210.84;2243712;39;19943;-80
2021/05/20 00:59:23;;;;;;;;;;;;;;;10.55;67.95;100211.28;2243047;39;19936;-80
2021/05/20 01:00:55;;;;;;;;;;;;;;;10.53;68.12;100209.72;2241656;39;19947;-79
2021/05/20 01:02:27;;;;;;;;;;;;;;;10.54;68.24;100216.78;2235673;39;19944;-80
2021/05/20 01:03:58;;;;;;;;;;;;;;;10.53;68.21;100218.56;2237201;40;19940;-79
2021/05/20 01:05:29;;;;;;;;;;;;;;;10.52;68.31;100214.25;2236445;39;20300;-79
2021/05/20 01:07:00;;;;;;;;;;;;;;;10.50;68.29;100215.34;2238428;40;19947;-80
2021/05/20 01:08:31;;;;;;;;;;;;;;;10.48;68.34;100212.00;2237304;39;19936;-79
2021/05/20 01:10:03;;;;;;;;;;;;;;;10.51;68.38;100215.22;2239649;39;19939;-79
2021/05/20 01:11:35;;;;;;;;;;;;;;;10.53;68.32;100215.91;2239721;39;19943;-79
2021/05/20 01:13:07;;;;;;;;;;;;;;;10.54;68.35;100211.41;2238485;40;19944;-80
2021/05/20 01:14:38;;;;;;;;;;;;;;;10.59;68.17;100217.19;2234203;39;20004;-80
2021/05/20 01:16:10;;;;;;;;;;;;;;;10.61;67.99;100221.41;2238586;40;19944;-80
2021/05/20 01:17:41;;;;;;;;;;;;;;;10.61;68.02;100218.75;2238577;39;19951;-80
2021/05/20 01:19:11;;;;;;;;;;;;;;;10.62;68.09;100214.22;2244063;39;20223;-80
2021/05/20 01:20:44;;;;;;;;;;;;;;;10.63;68.16;100215.94;2242300;39;19940;-80
2021/05/20 01:22:16;;;;;;;;;;;;;;;10.65;68.08;100215.78;2239263;40;19989;-78
2021/05/20 01:23:48;;;;;;;;;;;;;;;10.64;68.05;100222.97;2234326;40;19936;-80
2021/05/20 01:25:19;;;;;;;;;;;;;;;10.63;68.18;100223.13;2230766;40;19948;-81
2021/05/20 01:26:50;;;;;;;;;;;;;;;10.62;68.20;100224.94;2232350;39;19985;-80
2021/05/20 01:28:25;;;;;;;;;;;;;;;10.60;68.29;100233.09;2238144;39;20165;-79
2021/05/20 01:29:56;;;;;;;;;;;;;;;10.60;68.37;100225.06;2236985;39;20417;-79
2021/05/20 01:31:27;;;;;;;;;;;;;;;10.59;68.44;100223.38;2234350;40;19936;-79
2021/05/20 01:32:59;;;;;;;;;;;;;;;10.59;68.42;100225.19;2232337;40;19956;-80
2021/05/20 01:34:32;;;;;;;;;;;;;;;10.57;68.52;100221.84;2237848;40;20040;-80
2021/05/20 01:36:05;;;;;;;;;;;;;;;10.56;68.58;100220.16;2240150;39;19939;-80
2021/05/20 01:37:38;;;;;;;;;;;;;;;10.54;68.59;100224.78;2245521;39;19936;-80
2021/05/20 01:39:12;;;;;;;;;;;;;;;10.56;68.60;100225.50;2243311;39;19985;-82
2021/05/20 01:40:49;;;;;;;;;;;;;;;10.56;68.61;100225.50;2238057;40;20339;-80
2021/05/20 01:42:21;;;;;;;;;;;;;;;10.59;68.55;100220.72;2241199;39;19972;-80
2021/05/20 01:43:52;;;;;;;;;;;;;;;10.61;68.52;100224.09;2245307;39;19946;-80
2021/05/20 01:45:24;;;;;;;;;;;;;;;10.62;68.56;100222.25;2243951;39;19964;-81
2021/05/20 01:46:58;;;;;;;;;;;;;;;10.66;68.51;100231.69;2238415;40;20010;-81
2021/05/20 01:48:29;;;;;;;;;;;;;;;10.66;68.57;100234.38;2234337;39;19936;-80
2021/05/20 01:50:01;;;;;;;;;;;;;;;10.64;68.69;100230.97;2238177;40;19936;-80
2021/05/20 01:51:37;;;;;;;;;;;;;;;10.64;68.72;100222.09;2237129;40;19936;-82
2021/05/20 01:53:09;;;;;;;;;;;;;;;10.64;68.76;100232.78;2239247;39;19937;-80
2021/05/20 01:56:34;;;;;;;;;;;;;;;10.57;68.92;100236.03;2238661;39;20381;-80
2021/05/20 01:58:33;;;;;;;;;;;;;;;10.59;69.00;100238.56;2236178;40;20312;-80
2021/05/20 02:00:06;;;;;;;;;;;;;;;10.55;68.97;100231.81;2235150;39;19936;-81
2021/05/20 02:01:37;;;;;;;;;;;;;;;10.51;69.19;100228.59;2239005;40;20383;-80
2021/05/20 02:03:08;;;;;;;;;;;;;;;10.49;69.23;100229.69;2238455;39;19940;-80
2021/05/20 02:04:39;;;;;;;;;;;;;;;10.49;69.27;100240.38;2240900;40;19935;-80
2021/05/20 02:06:09;;;;;;;;;;;;;;;10.48;69.54;100233.38;2240018;39;19939;-80
2021/05/20 02:07:42;;;;;;;;;;;;;;;10.49;69.53;100232.38;2244905;39;19988;-81
2021/05/20 02:09:16;;;;;;;;;;;;;;;10.46;69.58;100236.16;2243634;39;19947;-81
2021/05/20 02:10:47;;;;;;;;;;;;;;;10.42;69.72;100230.25;2244520;39;19940;-80
2021/05/20 02:12:19;;;;;;;;;;;;;;;10.41;69.82;100235.75;2240194;39;19936;-80
2021/05/20 02:13:50;;;;;;;;;;;;;;;10.45;69.68;100235.34;2240063;40;20012;-81
2021/05/20 02:15:21;;;;;;;;;;;;;;;10.48;69.64;100233.38;2242228;39;19936;-80
2021/05/20 02:16:52;;;;;;;;;;;;;;;10.49;69.66;100237.72;2244789;39;19932;-80
2021/05/20 02:18:24;;;;;;;;;;;;;;;10.44;69.76;100239.00;2238524;39;19936;-80
2021/05/20 02:19:55;;;;;;;;;;;;;;;10.44;69.72;100243.47;2238292;40;19936;-80
2021/05/20 02:21:27;;;;;;;;;;;;;;;10.44;69.72;100241.66;2237225;39;19946;-81
2021/05/20 02:22:59;;;;;;;;;;;;;;;10.47;69.61;100240.53;2238738;40;19951;-81
2021/05/20 02:24:32;;;;;;;;;;;;;;;10.51;69.60;100244.63;2241808;39;19951;-80
2021/05/20 02:26:02;;;;;;;;;;;;;;;10.54;69.42;100248.84;2243755;39;19942;-80
2021/05/20 02:27:33;;;;;;;;;;;;;;;10.51;69.49;100244.63;2236524;39;19963;-80
2021/05/20 02:29:04;;;;;;;;;;;;;;;10.47;69.65;100242.38;2238093;40;19947;-80
2021/05/20 02:30:35;;;;;;;;;;;;;;;10.42;69.83;100240.94;2236147;39;20219;-81
2021/05/20 02:32:07;;;;;;;;;;;;;;;10.40;69.81;100242.91;2238006;40;19955;-81
2021/05/20 02:33:38;;;;;;;;;;;;;;;10.38;69.94;100244.91;2235590;39;19969;-80
2021/05/20 02:35:12;;;;;;;;;;;;;;;10.38;70.03;100244.91;2237824;40;19947;-81
2021/05/20 02:36:42;;;;;;;;;;;;;;;10.39;70.03;100241.22;2235707;40;19937;-80
2021/05/20 02:38:15;;;;;;;;;;;;;;;10.40;70.00;100245.59;2239072;40;19947;-80
2021/05/20 02:39:47;;;;;;;;;;;;;;;10.41;70.01;100239.25;2237064;40;19970;-81
2021/05/20 02:41:18;;;;;;;;;;;;;;;10.40;70.00;100242.09;2237103;39;20254;-81
2021/05/20 02:42:49;;;;;;;;;;;;;;;10.36;70.11;100244.16;2245056;39;19947;-81
2021/05/20 02:44:20;;;;;;;;;;;;;;;10.37;70.15;100231.63;2244350;39;19939;-82
2021/05/20 02:45:52;;;;;;;;;;;;;;;10.37;70.15;100231.63;2241876;39;19986;-80
2021/05/20 02:47:23;;;;;;;;;;;;;;;10.41;70.00;100233.09;2240830;39;19986;-83
2021/05/20 02:48:54;;;;;;;;;;;;;;;10.41;70.01;100238.44;2246625;39;20261;-80
2021/05/20 02:50:25;;;;;;;;;;;;;;;10.47;69.91;100239.69;2243311;39;19932;-81
2021/05/20 02:51:56;;;;;;;;;;;;;;;10.47;69.86;100234.34;2244446;39;19944;-81
2021/05/20 02:53:29;;;;;;;;;;;;;;;10.42;70.01;100235.59;2243396;39;19942;-81
2021/05/20 02:55:07;;;;;;;;;;;;;;;10.40;70.12;100242.09;2245368;39;19939;-81
2021/05/20 02:56:38;;;;;;;;;;;;;;;10.36;70.24;100245.97;2237720;40;19963;-81
2021/05/20 02:58:09;;;;;;;;;;;;;;;10.33;70.37;100243.59;2238582;40;19944;-80
2021/05/20 02:59:40;;;;;;;;;;;;;;;10.31;70.46;100251.72;2240420;39;19944;-81
2021/05/20 03:01:12;;;;;;;;;;;;;;;10.26;70.62;100245.97;2245162;39;19986;-81
2021/05/20 03:02:44;;;;;;;;;;;;;;;10.24;70.66;100246.13;2243339;39;20009;-80
2021/05/20 03:04:16;;;;;;;;;;;;;;;10.26;70.71;100244.13;2244609;39;20212;-80
2021/05/20 03:05:47;;;;;;;;;;;;;;;10.29;70.63;100259.06;2236432;40;19940;-81
2021/05/20 03:07:38;;;;;;;;;;;;;;;10.27;70.74;100253.00;2239263;40;19985;-81
2021/05/20 03:11:21;;;;;;;;;;;;;;;10.30;70.62;100253.56;2235216;39;19944;-80
2021/05/20 03:12:52;;;;;;;;;;;;;;;10.30;70.62;100247.38;2237445;40;19936;-79
2021/05/20 03:14:25;;;;;;;;;;;;;;;10.30;70.60;100247.38;2236484;39;19936;-80
2021/05/20 03:16:21;;;;;;;;;;;;;;;10.29;70.70;100253.72;2239560;40;19942;-81
2021/05/20 03:18:02;;;;;;;;;;;;;;;10.27;70.71;100248.50;2235477;39;19936;-80
2021/05/20 03:19:34;;;;;;;;;;;;;;;10.28;70.74;100250.19;2238742;40;19944;-79
2021/05/20 03:21:07;;;;;;;;;;;;;;;10.29;70.79;100246.53;2239871;39;19987;-80
2021/05/20 03:27:49;;;;;;;;;;;;;;;10.21;71.05;100253.53;2203053;40;20331;-79
2021/05/20 03:29:21;;;;;;;;;;;;;;;10.21;71.28;100262.41;2205454;40;20012;-80
2021/05/20 03:30:53;;;;;;;;;;;;;;;10.21;71.26;100256.19;2207380;40;19942;-80
2021/05/20 03:32:34;;;;;;;;;;;;;;;10.26;71.14;100262.00;2198967;40;19941;-81
2021/05/20 03:34:05;;;;;;;;;;;;;;;10.30;71.08;100258.06;2200890;40;20294;-79
2021/05/20 03:35:35;;;;;;;;;;;;;;;10.33;70.95;100268.47;2198649;40;19945;-78
2021/05/20 03:37:06;;;;;;;;;;;;;;;10.36;70.92;100256.66;2204872;40;19953;-78
2021/05/20 03:38:37;;;;;;;;;;;;;;;10.33;70.97;100263.13;2198379;40;19942;-78
2021/05/20 03:40:08;;;;;;;;;;;;;;;10.32;70.97;100261.44;2198646;40;19941;-79
2021/05/20 03:41:39;;;;;;;;;;;;;;;10.36;70.95;100260.19;2197402;40;19946;-78
2021/05/20 03:43:11;;;;;;;;;;;;;;;10.39;70.75;100267.94;2198455;40;19945;-79
2021/05/20 03:44:42;;;;;;;;;;;;;;;10.39;70.82;100261.78;2195429;40;19953;-78
2021/05/20 03:46:13;;;;;;;;;;;;;;;10.40;70.80;100274.16;2199385;40;19939;-79
2021/05/20 03:47:44;;;;;;;;;;;;;;;10.39;70.81;100273.28;2200410;40;19944;-79
2021/05/20 03:49:17;;;;;;;;;;;;;;;10.39;70.81;100272.47;2205415;40;19934;-79
2021/05/20 03:50:49;;;;;;;;;;;;;;;10.37;70.96;100274.38;2197570;40;19946;-79
2021/05/20 03:52:20;;;;;;;;;;;;;;;10.36;70.97;100273.56;2199463;40;19934;-79
2021/05/20 03:53:51;;;;;;;;;;;;;;;10.33;71.06;100273.00;2196044;40;20025;-78
2021/05/20 03:55:22;;;;;;;;;;;;;;;10.35;71.09;100279.00;2192985;40;19938;-78
2021/05/20 03:56:53;;;;;;;;;;;;;;;10.33;71.05;100273.81;2193779;40;19938;-79
2021/05/20 03:58:24;;;;;;;;;;;;;;;10.34;71.06;100272.00;2199168;40;20033;-78
2021/05/20 03:59:55;;;;;;;;;;;;;;;10.35;71.11;100279.00;2183325;40;20782;-79
2021/05/20 04:01:26;;;;;;;;;;;;;;;10.31;71.15;100275.78;2199533;40;19949;-78
2021/05/20 04:02:57;;;;;;;;;;;;;;;10.30;71.18;100264.25;2184898;40;20452;-78
2021/05/20 04:04:28;;;;;;;;;;;;;;;10.33;71.15;100276.50;2198948;40;19949;-78
2021/05/20 04:06:00;;;;;;;;;;;;;;;10.36;71.10;100276.22;2198057;40;19952;-79
2021/05/20 04:07:31;;;;;;;;;;;;;;;10.38;71.10;100276.09;2199574;40;20223;-79
2021/05/20 04:09:02;;;;;;;;;;;;;;;10.37;71.05;100280.63;2195472;40;19949;-79
2021/05/20 04:10:33;;;;;;;;;;;;;;;10.36;71.11;100276.22;2199348;40;20283;-79
2021/05/20 04:12:04;;;;;;;;;;;;;;;10.41;70.91;100281.19;2197952;40;20037;-79
2021/05/20 04:13:36;;;;;;;;;;;;;;;10.41;71.01;100287.38;2199745;40;20259;-79
2021/05/20 04:15:08;;;;;;;;;;;;;;;10.39;71.05;100289.31;2196181;40;19949;-79
2021/05/20 04:16:39;;;;;;;;;;;;;;;10.35;71.15;100282.56;2203856;40;19938;-78
2021/05/20 04:18:10;;;;;;;;;;;;;;;10.32;71.38;100282.81;2190425;40;19942;-79
2021/05/20 04:19:41;;;;;;;;;;;;;;;10.32;71.39;100285.47;2199482;40;19961;-78
2021/05/20 04:21:13;;;;;;;;;;;;;;;10.28;71.44;100284.91;2190744;40;19952;-78
2021/05/20 04:22:44;;;;;;;;;;;;;;;10.28;71.57;100282.25;2193282;40;19942;-79
2021/05/20 04:24:15;;;;;;;;;;;;;;;10.30;71.58;100288.31;2181392;40;19997;-79
2021/05/20 04:25:46;;;;;;;;;;;;;;;10.33;71.62;100292.53;2199697;40;19942;-79
2021/05/20 04:27:17;;;;;;;;;;;;;;;10.37;71.49;100288.63;2195627;40;19934;-78
2021/05/20 04:28:50;;;;;;;;;;;;;;;10.40;71.46;100292.84;2200966;40;19949;-79
2021/05/20 04:30:21;;;;;;;;;;;;;;;10.43;71.37;100297.94;2200265;40;19949;-79
2021/05/20 04:31:52;;;;;;;;;;;;;;;10.47;71.36;100298.50;2202593;40;19938;-80
2021/05/20 04:33:24;;;;;;;;;;;;;;;10.47;71.33;100301.19;2198807;40;19942;-79
2021/05/20 04:34:55;;;;;;;;;;;;;;;10.45;71.41;100299.47;2199763;40;19950;-78
2021/05/20 04:36:26;;;;;;;;;;;;;;;10.45;71.49;100301.28;2192205;40;19993;-78
2021/05/20 04:37:57;;;;;;;;;;;;;;;10.39;71.62;100304.53;2193363;40;19939;-78
2021/05/20 04:39:29;;;;;;;;;;;;;;;10.39;71.78;100310.69;2197603;40;19953;-79
2021/05/20 04:41:00;;;;;;;;;;;;;;;10.38;71.87;100303.69;2201839;40;19970;-78
2021/05/20 04:42:31;;;;;;;;;;;;;;;10.39;72.04;100307.19;2196347;40;19949;-78
2021/05/20 04:44:03;;;;;;;;;;;;;;;10.37;72.11;100309.13;2200042;40;19938;-78
2021/05/20 04:45:35;;;;;;;;;;;;;;;10.44;72.00;100307.63;2198149;40;19941;-79
2021/05/20 04:47:05;;;;;;;;;;;;;;;10.49;71.92;100309.88;2199640;40;19954;-78
2021/05/20 04:48:37;;;;;;;;;;;;;;;10.56;71.74;100308.38;2198532;40;19950;-79
2021/05/20 04:50:08;;;;;;;;;;;;;;;10.62;71.54;100321.16;2199810;40;20203;-78
2021/05/20 04:51:39;;;;;;;;;;;;;;;10.65;71.37;100312.88;2198050;40;19974;-79
2021/05/20 04:53:10;;;;;;;;;;;;;;;10.61;71.49;100319.47;2200028;40;20207;-79
2021/05/20 04:54:42;;;;;;;;;;;;;;;10.64;71.46;100319.22;2197810;40;19938;-79
2021/05/20 04:56:12;;;;;;;;;;;;;;;10.61;71.52;100322.16;2199828;40;19949;-79
2021/05/20 04:57:43;;;;;;;;;;;;;;;10.61;71.53;100320.34;2197890;40;19981;-79
2021/05/20 04:59:18;;;;;;;;;;;;;;;10.64;71.59;100326.38;2200020;40;19946;-80
2021/05/20 05:00:50;;;;;;;;;;;;;;;10.60;71.63;100324.00;2198519;40;20233;-80
2021/05/20 05:02:21;;;;;;;;;;;;;;;10.59;71.74;100326.78;2197716;40;20546;-80
2021/05/20 05:03:52;;;;;;;;;;;;;;;10.61;71.72;100332.84;2199486;40;20052;-80
2021/05/20 05:05:24;;;;;;;;;;;;;;;10.61;71.73;100330.16;2197797;40;19945;-81
2021/05/20 05:06:55;;;;;;;;;;;;;;;10.58;71.86;100330.47;2199505;40;19950;-79
2021/05/20 05:08:26;;;;;;;;;;;;;;;10.63;71.87;100327.38;2198214;40;20259;-80
2021/05/20 05:09:57;;;;;;;;;;;;;;;10.65;71.83;100331.59;2199573;40;19938;-80
2021/05/20 05:11:28;;;;;;;;;;;;;;;10.66;71.77;100333.28;2196123;40;19949;-80
2021/05/20 05:12:58;;;;;;;;;;;;;;;10.66;71.74;100333.28;2199158;40;19985;-80
2021/05/20 05:14:30;;;;;;;;;;;;;;;10.70;71.76;100333.84;2197853;40;19973;-79
2021/05/20 05:16:02;;;;;;;;;;;;;;;10.82;71.68;100337.25;2199185;40;19945;-79
2021/05/20 05:17:33;;;;;;;;;;;;;;;10.85;71.41;100345.00;2194350;40;19938;-80
2021/05/20 05:19:04;;;;;;;;;;;;;;;10.89;71.38;100343.72;2193134;40;20401;-80
2021/05/20 05:20:35;;;;;;;;;;;;;;;10.87;71.42;100351.03;2192411;40;20250;-80
2021/05/20 05:22:09;;;;;;;;;;;;;;;10.95;71.23;100353.88;2193262;40;19957;-80
2021/05/20 05:23:40;;;;;;;;;;;;;;;11.03;71.08;100351.34;2192044;40;19946;-80
2021/05/20 05:25:11;;;;;;;;;;;;;;;11.08;70.85;100349.06;2198999;40;19942;-79
2021/05/20 05:26:42;;;;;;;;;;;;;;;11.08;70.73;100353.59;2197289;40;19941;-80
2021/05/20 05:28:13;;;;;;;;;;;;;;;11.06;70.65;100348.38;2199324;40;20534;-80
2021/05/20 05:29:45;;;;;;;;;;;;;;;11.06;70.42;100344.84;2196483;40;19942;-80
2021/05/20 05:31:21;;;;;;;;;;;;;;;11.04;70.60;100346.81;2193353;40;20295;-80
2021/05/20 05:32:52;;;;;;;;;;;;;;;11.12;70.53;100346.13;2191511;40;19942;-80
2021/05/20 05:34:23;;;;;;;;;;;;;;;11.15;70.27;100338.66;2193942;40;19953;-80
2021/05/20 05:35:54;;;;;;;;;;;;;;;11.08;70.23;100343.72;2191359;40;19957;-80
2021/05/20 05:37:25;;;;;;;;;;;;;;;11.01;70.17;100347.09;2193039;40;19948;-80
2021/05/20 05:38:58;;;;;;;;;;;;;;;10.98;70.34;100350.06;2191502;40;19946;-80
2021/05/20 05:40:30;;;;;;;;;;;;;;;10.95;70.34;100350.34;2193258;40;20300;-80
2021/05/20 05:42:01;;;;;;;;;;;;;;;10.99;70.48;100354.44;2191541;40;20421;-79
2021/05/20 05:43:32;;;;;;;;;;;;;;;10.98;70.30;100353.56;2193438;40;20184;-80
2021/05/20 05:45:05;;;;;;;;;;;;;;;10.98;70.17;100366.94;2191516;40;19966;-80
2021/05/20 05:46:36;;;;;;;;;;;;;;;10.98;70.17;100363.44;2193211;40;19942;-79
2021/05/20 05:48:11;;;;;;;;;;;;;;;10.99;70.25;100365.97;2191751;40;19945;-80
2021/05/20 05:49:45;;;;;;;;;;;;;;;11.00;70.11;100369.50;2193326;40;19935;-80
2021/05/20 05:51:18;;;;;;;;;;;;;;;10.99;70.09;100360.63;2191472;40;19938;-79
2021/05/20 05:52:49;;;;;;;;;;;;;;;11.01;70.12;100366.69;2192873;40;19947;-80
2021/05/20 05:54:19;;;;;;;;;;;;;;;10.99;70.04;100368.66;2186087;40;19946;-80
2021/05/20 05:55:51;;;;;;;;;;;;;;;11.00;70.14;100370.34;2192740;40;20033;-80
2021/05/20 05:57:22;;;;;;;;;;;;;;;11.05;70.14;100369.91;2191554;40;19938;-80
2021/05/20 05:58:53;;;;;;;;;;;;;;;11.07;70.21;100360.75;2192854;40;20239;-80
2021/05/20 06:00:25;;;;;;;;;;;;;;;11.05;70.49;100373.44;2191301;40;19946;-79
2021/05/20 06:01:58;;;;;;;;;;;;;;;11.06;70.77;100367.09;2193165;40;19950;-80
2021/05/20 06:03:29;;;;;;;;;;;;;;;11.02;71.10;100365.69;2191526;40;20447;-80
2021/05/20 06:05:00;;;;;;;;;;;;;;;11.00;71.29;100377.53;2193282;40;19949;-80
2021/05/20 06:06:31;;;;;;;;;;;;;;;10.94;71.54;100378.94;2191391;40;19942;-79
2021/05/20 06:08:02;;;;;;;;;;;;;;;10.98;71.71;100383.00;2193056;40;20215;-80
2021/05/20 06:09:33;;;;;;;;;;;;;;;11.01;71.84;100382.72;2191267;40;19943;-80
2021/05/20 06:11:04;;;;;;;;;;;;;;;11.05;71.88;100381.44;2193066;40;19934;-80
2021/05/20 06:12:35;;;;;;;;;;;;;;;11.00;71.93;100380.22;2191847;40;19949;-81
2021/05/20 06:14:08;;;;;;;;;;;;;;;10.95;72.11;100382.44;2192840;40;19950;-80
2021/05/20 06:15:39;;;;;;;;;;;;;;;10.90;72.29;100374.81;2191349;40;19993;-80
2021/05/20 06:17:10;;;;;;;;;;;;;;;10.87;72.06;100386.66;2193415;40;19972;-80
2021/05/20 06:18:42;;;;;;;;;;;;;;;10.97;71.95;100383.97;2193194;40;19947;-80
2021/05/20 06:20:12;;;;;;;;;;;;;;;11.04;71.74;100385.13;2195522;40;19962;-80
2021/05/20 06:21:49;;;;;;;;;;;;;;;11.07;71.68;100384.84;2193549;40;20343;-80
2021/05/20 06:23:20;;;;;;;;;;;;;;;11.16;71.51;100387.66;2194027;40;20215;-82
2021/05/20 06:24:51;;;;;;;;;;;;;;;11.20;71.14;100389.06;2194730;40;20230;-80
2021/05/20 06:26:22;;;;;;;;;;;;;;;11.17;70.93;100392.03;2198600;40;19945;-81
2021/05/20 06:27:53;;;;;;;;;;;;;;;11.11;71.01;100393.44;2205768;40;19938;-80
2021/05/20 06:29:24;;;;;;;;;;;;;;;11.17;70.78;100384.00;2203560;40;20020;-80
2021/05/20 06:30:56;;;;;;;;;;;;;;;11.20;70.52;100392.59;2199721;40;19934;-80
2021/05/20 06:32:28;;;;;;;;;;;;;;;11.20;70.38;100387.22;2198139;40;19945;-81
2021/05/20 06:33:59;;;;;;;;;;;;;;;11.20;70.26;100394.44;2199513;40;19995;-81
2021/05/20 06:35:30;;;;;;;;;;;;;;;11.20;70.13;100394.44;2197477;40;19953;-80
2021/05/20 06:37:02;;;;;;;;;;;;;;;11.21;70.00;100396.97;2204845;40;19946;-80
2021/05/20 06:38:34;;;;;;;;;;;;;;;11.29;69.91;100398.09;2203630;40;19938;-80
2021/05/20 06:40:05;;;;;;;;;;;;;;;11.36;69.69;100402.72;2205190;40;19934;-79
2021/05/20 06:41:36;;;;;;;;;;;;;;;11.41;69.48;100398.81;2205167;40;19942;-80
2021/05/20 06:43:07;;;;;;;;;;;;;;;11.41;69.38;100399.63;2204862;40;19942;-80
2021/05/20 06:44:39;;;;;;;;;;;;;;;11.46;69.31;100399.22;2192745;40;19949;-81
2021/05/20 06:46:13;;;;;;;;;;;;;;;11.47;69.05;100404.44;2205005;40;19944;-81
2021/05/20 06:47:44;;;;;;;;;;;;;;;11.52;69.02;100399.50;2203714;40;19949;-80
2021/05/20 06:49:15;;;;;;;;;;;;;;;11.54;68.77;100397.53;2204786;40;19941;-81
2021/05/20 06:50:47;;;;;;;;;;;;;;;11.48;68.66;100407.94;2201677;40;20191;-79
2021/05/20 06:52:19;;;;;;;;;;;;;;;11.47;68.43;100404.44;2194598;40;19954;-80
2021/05/20 06:53:51;;;;;;;;;;;;;;;11.46;68.28;100404.56;2191345;40;19938;-80
2021/05/20 06:55:22;;;;;;;;;;;;;;;11.42;68.38;100413.88;2192121;40;19950;-80
2021/05/20 06:56:56;;;;;;;;;;;;;;;11.39;68.50;100405.13;2171819;40;19947;-80
2021/05/20 07:00:16;;;;;;;;;;;;;;;11.55;68.25;100419.78;2196138;40;19946;-80
2021/05/20 07:01:48;;;;;;;;;;;;;;;11.61;68.11;100408.50;2204836;40;19937;-80
2021/05/20 07:03:19;;;;;;;;;;;;;;;11.66;67.79;100416.94;2202885;40;19945;-80
2021/05/20 07:04:51;;;;;;;;;;;;;;;11.64;67.71;100418.91;2205129;40;19942;-79
2021/05/20 07:06:22;;;;;;;;;;;;;;;11.61;67.51;100418.38;2203315;40;19941;-80
2021/05/20 07:07:53;;;;;;;;;;;;;;;11.56;67.52;100421.47;2204554;40;19953;-80
2021/05/20 07:09:24;;;;;;;;;;;;;;;11.61;67.67;100423.72;2203277;40;19934;-80
2021/05/20 07:10:55;;;;;;;;;;;;;;;11.63;67.37;100421.75;2205012;40;19949;-80
2021/05/20 07:12:26;;;;;;;;;;;;;;;11.60;67.54;100427.38;2198743;40;19942;-80
2021/05/20 07:13:58;;;;;;;;;;;;;;;11.61;67.46;100427.25;2199128;40;19939;-80
2021/05/20 07:15:29;;;;;;;;;;;;;;;11.61;67.46;100424.59;2197711;40;19942;-80
2021/05/20 07:17:01;;;;;;;;;;;;;;;11.59;67.46;100423.88;2198533;40;20294;-80
2021/05/20 07:18:33;;;;;;;;;;;;;;;11.57;67.56;100423.16;2197181;40;19934;-80
2021/05/20 07:20:04;;;;;;;;;;;;;;;11.57;67.70;100423.16;2198733;40;20025;-80
2021/05/20 07:21:35;;;;;;;;;;;;;;;11.60;67.53;100422.03;2186785;40;19954;-79
2021/05/20 07:23:11;;;;;;;;;;;;;;;11.57;67.59;100415.13;2198764;40;19964;-80
2021/05/20 07:24:43;;;;;;;;;;;;;;;11.62;67.40;100420.06;2197569;40;19942;-80
2021/05/20 07:26:14;;;;;;;;;;;;;;;11.60;67.38;100414.84;2198896;40;20298;-80
2021/05/20 07:27:46;;;;;;;;;;;;;;;11.59;67.52;100421.19;2203683;40;19941;-80
2021/05/20 07:29:18;;;;;;;;;;;;;;;11.57;67.53;100417.81;2203934;40;19957;-80
2021/05/20 07:30:49;;;;;;;;;;;;;;;11.62;67.43;100420.06;2206101;40;19942;-80
2021/05/20 07:32:25;;;;;;;;;;;;;;;11.67;67.30;100418.66;2203926;40;19950;-80
2021/05/20 07:33:57;;;;;;;;;;;;;;;11.75;67.08;100420.63;2206320;40;19942;-81
2021/05/20 07:35:28;;;;;;;;;;;;;;;11.84;66.82;100417.06;2204960;40;19942;-81
2021/05/20 07:37:10;;;;;;;;;;;;;;;11.84;66.62;100419.75;2200616;40;19941;-80
2021/05/20 07:38:41;;;;;;;;;;;;;;;11.85;66.72;100421.41;2201926;40;19997;-81
2021/05/20 07:40:19;;;;;;;;;;;;;;;11.89;66.53;100416.66;2203443;40;19934;-81
2021/05/20 07:41:50;;;;;;;;;;;;;;;11.91;66.45;100425.34;2201547;40;19938;-81
2021/05/20 07:43:21;;;;;;;;;;;;;;;12.00;66.30;100423.69;2199826;40;19963;-79
2021/05/20 07:44:54;;;;;;;;;;;;;;;12.05;65.94;100432.13;2198094;40;19942;-81
2021/05/20 07:46:25;;;;;;;;;;;;;;;12.06;65.68;100419.59;2199236;40;19942;-79
2021/05/20 07:47:57;;;;;;;;;;;;;;;11.96;65.97;100423.09;2197898;40;20212;-80
2021/05/20 07:49:28;;;;;;;;;;;;;;;11.94;66.19;100425.06;2198819;40;20036;-79
2021/05/20 07:50:59;;;;;;;;;;;;;;;12.01;66.21;100422.69;2197229;40;20476;-79
2021/05/20 07:52:29;;;;;;;;;;;;;;;12.05;66.08;100426.75;2198899;40;19949;-79
2021/05/20 07:54:01;;;;;;;;;;;;;;;12.19;65.99;100421.94;2197111;40;20321;-80
2021/05/20 07:55:32;;;;;;;;;;;;;;;12.39;65.65;100422.69;2198903;40;19953;-79
2021/05/20 07:57:03;;;;;;;;;;;;;;;12.68;65.18;100416.38;2197284;40;19938;-80
2021/05/20 07:58:34;;;;;;;;;;;;;;;13.09;64.12;100408.78;2198328;40;19942;-80
2021/05/20 08:00:06;;;;;;;;;;;;;;;13.23;62.92;100412.75;2197079;40;19953;-79
2021/05/20 08:01:39;;;;;;;;;;;;;;;13.17;62.89;100406.16;2198643;40;19948;-79
2021/05/20 08:03:23;;;;;;;;;;;;;;;13.01;63.04;100422.09;2196869;40;19953;-79